Time;durP1;ratioP1;P1;durP2;ratioP2;P2;SDS_P1;SDS_P2;PMS_P1;PMS_P2;Temp;Humidity;BMP_temperature;BMP_pressure;BME280_temperature;BME280_humidity;BME280_pressure;Samples;Min_cycle;Max_cycle;Signal;HPM_P1;HPM_P2
2022/11/20 00:01:21;;;;;;;5.17;1.83;;;14.10;99.90;;;;;;5038048;28;20283;-77
2022/11/20 00:03:48;;;;;;;3.50;1.70;;;14.10;99.90;;;;;;5030544;28;20187;-76
2022/11/20 00:06:18;;;;;;;2.07;1.60;;;14.10;99.90;;;;;;5012058;28;20180;-77
2022/11/20 00:08:46;;;;;;;5.50;1.80;;;14.10;99.90;;;;;;5024726;28;20200;-76
2022/11/20 00:11:19;;;;;;;3.70;1.40;;;14.10;99.90;;;;;;5020877;28;20274;-76
2022/11/20 00:13:50;;;;;;;4.63;1.80;;;14.00;99.90;;;;;;5041037;28;20181;-76
2022/11/20 00:16:21;;;;;;;4.63;1.70;;;14.00;99.90;;;;;;5036441;28;20185;-76
2022/11/20 00:18:49;;;;;;;2.27;1.50;;;14.00;99.90;;;;;;5024051;28;20192;-76
2022/11/20 00:21:28;;;;;;;4.87;1.70;;;14.00;99.90;;;;;;5020932;28;20191;-77
2022/11/20 00:23:57;;;;;;;3.90;1.60;;;14.00;99.90;;;;;;5039290;28;20661;-77
2022/11/20 00:26:27;;;;;;;2.73;1.40;;;14.00;99.90;;;;;;5033826;28;20184;-77
2022/11/20 00:28:59;;;;;;;2.93;1.50;;;14.00;99.90;;;;;;5034008;28;21024;-77
2022/11/20 00:31:27;;;;;;;4.43;1.57;;;14.00;99.90;;;;;;5023135;28;20187;-77
2022/11/20 00:33:54;;;;;;;2.90;1.50;;;14.00;99.90;;;;;;5014788;28;20673;-77
2022/11/20 00:36:23;;;;;;;5.30;1.93;;;14.00;99.90;;;;;;5035770;28;20701;-77
2022/11/20 00:38:58;;;;;;;6.50;1.73;;;14.00;99.90;;;;;;5027034;28;20185;-77
2022/11/20 00:41:27;;;;;;;7.33;1.77;;;14.00;99.90;;;;;;5026650;28;20298;-76
2022/11/20 00:43:55;;;;;;;3.80;1.77;;;13.90;99.90;;;;;;5007802;28;20546;-77
2022/11/20 00:46:25;;;;;;;3.03;1.40;;;13.90;99.90;;;;;;5014563;28;20194;-77
2022/11/20 00:48:52;;;;;;;5.50;1.87;;;13.90;99.90;;;;;;5020174;28;20208;-77
2022/11/20 00:51:22;;;;;;;5.47;1.70;;;13.90;99.90;;;;;;5010807;28;20235;-77
2022/11/20 00:53:49;;;;;;;5.73;1.70;;;13.90;99.90;;;;;;5027060;28;20226;-77
2022/11/20 00:56:19;;;;;;;8.50;1.90;;;13.80;99.90;;;;;;5013476;28;20176;-77
2022/11/20 00:58:48;;;;;;;3.00;1.67;;;13.80;99.90;;;;;;5029302;28;20220;-76
2022/11/20 01:01:25;;;;;;;6.90;1.87;;;13.80;99.90;;;;;;5022543;28;20189;-77
2022/11/20 01:03:55;;;;;;;3.03;1.67;;;13.80;99.90;;;;;;5032266;28;20597;-77
2022/11/20 01:06:27;;;;;;;2.87;1.60;;;13.70;99.90;;;;;;5039053;28;20192;-77
2022/11/20 01:08:58;;;;;;;8.23;1.90;;;13.70;99.90;;;;;;5033645;28;20208;-77
2022/11/20 01:11:33;;;;;;;4.53;1.50;;;13.60;99.90;;;;;;5034936;28;20529;-77
2022/11/20 01:14:01;;;;;;;4.57;1.60;;;13.60;99.90;;;;;;5024445;28;20187;-77
2022/11/20 01:16:41;;;;;;;3.03;1.80;;;13.60;99.90;;;;;;5019723;28;20192;-77
2022/11/20 01:19:12;;;;;;;3.67;1.50;;;13.60;99.90;;;;;;5021017;28;20824;-77
2022/11/20 01:21:42;;;;;;;3.60;1.60;;;13.60;99.90;;;;;;5009672;28;20653;-76
2022/11/20 01:24:14;;;;;;;3.53;1.87;;;13.60;99.90;;;;;;5025364;28;20429;-76
2022/11/20 01:26:43;;;;;;;2.97;1.87;;;13.60;99.90;;;;;;5029735;28;20192;-77
2022/11/20 01:29:23;;;;;;;4.30;1.77;;;13.60;99.90;;;;;;5030056;28;20207;-77
2022/11/20 01:31:52;;;;;;;5.03;1.80;;;13.50;99.90;;;;;;5016211;28;20239;-76
2022/11/20 01:34:22;;;;;;;4.30;1.60;;;13.40;99.90;;;;;;5031177;28;20226;-77
2022/11/20 01:36:49;;;;;;;3.60;1.73;;;13.40;99.90;;;;;;5024497;28;20550;-77
2022/11/20 01:39:21;;;;;;;5.70;1.53;;;13.40;99.90;;;;;;5025051;28;20194;-76
2022/11/20 01:45:00;;;;;;;3.97;1.70;;;13.40;99.90;;;;;;5048869;28;20183;-77
2022/11/20 01:47:46;;;;;;;4.50;1.57;;;13.50;99.90;;;;;;5014793;28;20192;-77
2022/11/20 01:50:25;;;;;;;3.83;1.60;;;13.40;99.90;;;;;;5040591;28;20636;-76
2022/11/20 01:53:01;;;;;;;2.73;1.77;;;13.40;99.90;;;;;;5041822;28;20180;-77
2022/11/20 01:55:34;;;;;;;4.07;1.80;;;13.40;99.90;;;;;;5044151;28;20353;-76
2022/11/20 01:58:03;;;;;;;3.13;1.60;;;13.40;99.90;;;;;;5022728;28;20196;-77
2022/11/20 02:00:30;;;;;;;2.47;1.33;;;13.40;99.90;;;;;;5034242;28;20186;-77
2022/11/20 02:03:09;;;;;;;4.07;1.33;;;13.40;99.90;;;;;;5036095;28;20191;-77
2022/11/20 02:05:56;;;;;;;4.53;1.63;;;13.40;99.90;;;;;;5033773;28;20200;-77
2022/11/20 02:08:24;;;;;;;2.37;1.50;;;13.30;99.90;;;;;;5034990;28;20191;-77
2022/11/20 02:10:50;;;;;;;5.47;2.00;;;13.30;99.90;;;;;;5042348;28;20238;-77
2022/11/20 02:16:03;;;;;;;6.23;1.80;;;13.30;99.90;;;;;;5025325;28;20238;-77
2022/11/20 02:18:30;;;;;;;6.20;1.50;;;13.30;99.90;;;;;;5030020;28;20185;-77
2022/11/20 02:21:09;;;;;;;8.00;1.97;;;13.40;99.90;;;;;;5025412;28;20187;-77
2022/11/20 02:23:57;;;;;;;5.83;1.80;;;13.30;99.90;;;;;;5036629;28;20195;-77
2022/11/20 02:26:26;;;;;;;4.47;2.00;;;13.30;99.90;;;;;;5025383;28;20245;-77
2022/11/20 02:28:53;;;;;;;3.83;1.67;;;13.20;99.90;;;;;;5047234;28;20234;-76
2022/11/20 02:31:19;;;;;;;4.73;2.03;;;13.20;99.90;;;;;;5039196;28;20594;-76
2022/11/20 02:33:45;;;;;;;5.72;2.10;;;13.30;99.90;;;;;;5034942;28;20925;-75
2022/11/20 02:36:16;;;;;;;3.90;1.87;;;13.30;99.90;;;;;;5031426;28;20211;-76
2022/11/20 02:38:44;;;;;;;4.70;1.60;;;13.30;99.90;;;;;;5050614;28;20713;-76
2022/11/20 02:41:11;;;;;;;10.73;1.73;;;13.30;99.90;;;;;;5038868;28;20534;-76
2022/11/20 02:43:37;;;;;;;2.83;1.70;;;13.30;99.90;;;;;;5033533;28;20191;-76
2022/11/20 02:46:06;;;;;;;7.60;1.90;;;13.30;99.90;;;;;;5022475;28;20188;-76
2022/11/20 02:48:33;;;;;;;5.27;1.80;;;13.20;99.90;;;;;;5030712;28;20207;-76
2022/11/20 02:51:00;;;;;;;4.73;1.63;;;13.20;99.90;;;;;;5027793;28;20214;-76
2022/11/20 02:53:26;;;;;;;3.33;1.90;;;13.20;99.90;;;;;;5033219;28;20187;-76
2022/11/20 02:55:52;;;;;;;1.97;1.63;;;13.10;99.90;;;;;;5033750;28;20192;-76
2022/11/20 02:58:19;;;;;;;6.30;1.90;;;13.00;99.90;;;;;;5031314;28;20228;-76
2022/11/20 03:00:46;;;;;;;5.57;1.93;;;13.00;99.90;;;;;;5026647;28;20184;-76
2022/11/20 03:03:12;;;;;;;3.20;1.73;;;13.10;99.90;;;;;;5038803;28;20268;-76
2022/11/20 03:05:40;;;;;;;6.38;2.13;;;13.10;99.90;;;;;;5034143;28;20942;-76
2022/11/20 03:08:07;;;;;;;3.77;1.70;;;13.20;99.90;;;;;;5028352;28;20298;-76
2022/11/20 03:10:34;;;;;;;4.33;1.87;;;13.30;99.90;;;;;;5023434;28;20181;-76
2022/11/20 03:13:01;;;;;;;5.60;1.90;;;13.40;99.90;;;;;;5038271;28;20283;-76
2022/11/20 03:15:28;;;;;;;2.83;1.87;;;13.40;99.90;;;;;;5037763;28;20199;-76
2022/11/20 03:17:55;;;;;;;4.70;1.93;;;13.40;99.90;;;;;;5031394;28;20561;-76
2022/11/20 03:20:24;;;;;;;7.03;2.30;;;13.40;99.90;;;;;;5035037;28;20189;-76
2022/11/20 03:22:54;;;;;;;4.80;1.90;;;13.40;99.90;;;;;;5034515;28;20192;-76
2022/11/20 03:25:22;;;;;;;4.97;2.10;;;13.40;99.90;;;;;;5041564;28;20376;-76
2022/11/20 03:27:49;;;;;;;4.30;2.00;;;13.40;99.90;;;;;;5021795;28;20756;-76
2022/11/20 03:30:16;;;;;;;5.67;1.77;;;13.30;99.90;;;;;;5012438;28;20672;-76
2022/11/20 03:32:43;;;;;;;3.20;2.00;;;13.30;99.90;;;;;;5035171;28;20215;-75
2022/11/20 03:35:10;;;;;;;4.20;1.70;;;13.30;99.90;;;;;;5033108;28;20188;-76
2022/11/20 03:37:36;;;;;;;6.43;1.70;;;13.30;99.90;;;;;;5030083;28;20232;-76
2022/11/20 03:40:03;;;;;;;3.13;1.70;;;13.20;99.90;;;;;;5033966;28;20644;-76
2022/11/20 03:42:44;;;;;;;3.37;1.73;;;13.20;99.90;;;;;;5035645;28;20196;-76
2022/11/20 03:45:15;;;;;;;4.37;1.50;;;13.20;99.90;;;;;;5027587;28;20204;-75
2022/11/20 03:47:44;;;;;;;3.90;1.97;;;13.20;99.90;;;;;;5033416;28;20595;-76
2022/11/20 03:50:13;;;;;;;4.63;1.57;;;13.20;99.90;;;;;;5026241;28;20234;-76
2022/11/20 03:52:41;;;;;;;2.57;1.70;;;13.20;99.90;;;;;;5038070;28;20184;-76
2022/11/20 03:55:08;;;;;;;2.17;1.53;;;13.10;99.90;;;;;;5034671;28;20184;-76
2022/11/20 03:57:35;;;;;;;3.57;1.70;;;13.10;99.90;;;;;;5029128;28;20200;-76
2022/11/20 04:00:01;;;;;;;7.13;1.80;;;13.10;99.90;;;;;;5024048;28;20192;-76
2022/11/20 04:02:27;;;;;;;8.23;1.60;;;13.10;99.90;;;;;;5027269;28;20196;-76
2022/11/20 04:04:55;;;;;;;3.90;1.60;;;13.10;99.90;;;;;;5031663;28;20681;-76
2022/11/20 04:07:21;;;;;;;4.67;1.80;;;13.10;99.90;;;;;;5048799;28;20188;-76
2022/11/20 04:09:48;;;;;;;3.60;1.70;;;13.10;99.90;;;;;;5043090;28;20239;-76
2022/11/20 04:12:14;;;;;;;4.63;1.50;;;13.00;99.90;;;;;;5032811;28;20187;-76
2022/11/20 04:14:40;;;;;;;5.30;1.80;;;13.00;99.90;;;;;;5023367;28;20187;-76
2022/11/20 04:17:06;;;;;;;2.40;1.47;;;13.00;99.90;;;;;;5030725;28;20207;-76
2022/11/20 04:19:32;;;;;;;3.73;1.40;;;13.00;99.90;;;;;;5034349;28;20660;-76
2022/11/20 04:21:59;;;;;;;5.43;2.00;;;13.00;99.90;;;;;;5019090;28;20550;-76
2022/11/20 04:24:26;;;;;;;8.27;1.97;;;13.00;99.90;;;;;;5022256;28;20187;-75
2022/11/20 04:26:53;;;;;;;5.07;1.90;;;13.00;99.90;;;;;;5049253;28;20194;-76
2022/11/20 04:29:19;;;;;;;4.03;1.67;;;13.00;99.90;;;;;;5029551;28;20608;-76
2022/11/20 04:31:45;;;;;;;4.20;1.70;;;12.90;99.90;;;;;;5028890;28;20206;-76
2022/11/20 04:34:13;;;;;;;3.13;1.67;;;12.90;99.90;;;;;;5032273;28;20663;-76
2022/11/20 04:36:39;;;;;;;4.00;2.10;;;12.90;99.90;;;;;;5045552;28;20176;-76
2022/11/20 04:39:06;;;;;;;4.90;1.70;;;12.90;99.90;;;;;;5045106;28;20798;-76
2022/11/20 04:41:36;;;;;;;6.60;1.80;;;12.90;99.90;;;;;;5030720;28;20640;-76
2022/11/20 04:44:05;;;;;;;2.53;1.43;;;12.90;99.90;;;;;;5022097;28;20188;-76
2022/11/20 04:46:41;;;;;;;6.40;1.60;;;12.90;99.90;;;;;;5026239;28;20196;-76
2022/11/20 04:49:08;;;;;;;5.00;1.50;;;12.90;99.90;;;;;;5027787;28;20227;-75
2022/11/20 04:51:35;;;;;;;4.90;1.73;;;13.00;99.90;;;;;;5026033;28;20192;-76
2022/11/20 04:54:01;;;;;;;7.00;1.60;;;13.00;99.90;;;;;;5026118;28;20188;-75
2022/11/20 04:56:28;;;;;;;2.30;1.40;;;13.00;99.90;;;;;;5036163;28;20223;-76
2022/11/20 04:58:54;;;;;;;3.30;1.60;;;13.00;99.90;;;;;;5026411;28;20192;-75
2022/11/20 05:01:23;;;;;;;4.53;1.50;;;13.00;99.90;;;;;;5027040;28;20191;-76
2022/11/20 05:03:51;;;;;;;2.53;1.60;;;13.10;99.90;;;;;;5044219;28;20675;-76
2022/11/20 05:06:20;;;;;;;8.90;2.17;;;13.10;99.90;;;;;;5041501;28;20544;-76
2022/11/20 05:08:47;;;;;;;4.60;1.60;;;13.10;99.90;;;;;;5029433;28;20228;-76
2022/11/20 05:11:20;;;;;;;5.43;1.77;;;13.10;99.90;;;;;;5033371;28;20183;-75
2022/11/20 05:13:48;;;;;;;3.27;1.50;;;13.10;99.90;;;;;;5035895;28;20814;-76
2022/11/20 05:16:21;;;;;;;6.87;1.90;;;13.10;99.90;;;;;;5031796;28;20176;-75
2022/11/20 05:18:50;;;;;;;11.37;2.50;;;13.10;99.90;;;;;;5014871;28;20565;-76
2022/11/20 05:21:17;;;;;;;7.03;1.80;;;13.10;99.90;;;;;;5036317;28;20195;-76
2022/11/20 05:23:45;;;;;;;7.73;2.50;;;13.20;99.90;;;;;;5038586;28;20187;-76
2022/11/20 05:26:19;;;;;;;3.33;1.63;;;13.20;99.90;;;;;;5031139;28;20545;-76
2022/11/20 05:28:48;;;;;;;4.37;1.77;;;13.20;99.90;;;;;;5025075;28;20208;-76
2022/11/20 05:31:22;;;;;;;5.40;1.50;;;13.20;99.90;;;;;;5027105;28;20204;-76
2022/11/20 05:33:49;;;;;;;4.13;1.70;;;13.30;99.90;;;;;;5001979;28;20181;-76
2022/11/20 05:36:17;;;;;;;3.10;1.77;;;13.30;99.90;;;;;;5021034;28;20283;-76
2022/11/20 05:38:44;;;;;;;3.50;1.60;;;13.30;99.90;;;;;;5023146;28;21609;-76
2022/11/20 05:41:18;;;;;;;2.60;1.50;;;13.40;99.90;;;;;;5028140;28;20203;-76
2022/11/20 05:43:47;;;;;;;3.00;1.60;;;13.50;99.90;;;;;;5045578;28;20725;-76
2022/11/20 05:46:18;;;;;;;3.57;1.87;;;13.50;99.90;;;;;;5026807;28;20223;-76
2022/11/20 05:48:45;;;;;;;5.17;1.90;;;13.60;99.90;;;;;;5024174;28;20744;-76
2022/11/20 05:51:17;;;;;;;4.33;1.63;;;13.70;99.90;;;;;;5025477;28;20758;-76
2022/11/20 05:53:44;;;;;;;1.93;1.63;;;13.80;99.90;;;;;;5025183;28;20184;-76
2022/11/20 05:56:18;;;;;;;5.07;1.67;;;13.90;99.90;;;;;;5017588;28;20176;-76
2022/11/20 05:58:46;;;;;;;3.70;1.80;;;14.00;99.90;;;;;;5045324;28;20199;-76
2022/11/20 06:01:18;;;;;;;2.27;1.50;;;14.10;99.90;;;;;;5035706;28;20271;-76
2022/11/20 06:03:47;;;;;;;3.80;1.77;;;14.20;99.90;;;;;;5028804;28;20214;-76
2022/11/20 06:06:15;;;;;;;3.40;2.00;;;14.30;99.90;;;;;;5026333;28;20184;-76
2022/11/20 06:08:41;;;;;;;3.53;1.70;;;14.30;99.90;;;;;;5045725;28;20207;-76
2022/11/20 06:11:11;;;;;;;2.10;1.50;;;14.40;99.90;;;;;;5034859;28;20212;-76
2022/11/20 06:13:38;;;;;;;6.23;1.60;;;14.40;99.90;;;;;;5031324;28;20188;-76
2022/11/20 06:16:05;;;;;;;2.87;1.67;;;14.50;99.90;;;;;;5031362;28;20838;-75
2022/11/20 06:18:32;;;;;;;5.03;1.90;;;14.50;99.90;;;;;;5051005;28;20577;-76
2022/11/20 06:21:12;;;;;;;4.13;1.80;;;14.70;99.90;;;;;;5039442;28;20195;-76
2022/11/20 06:23:40;;;;;;;4.20;2.27;;;14.80;99.90;;;;;;5025143;28;20208;-76
2022/11/20 06:26:11;;;;;;;3.50;1.60;;;14.90;99.90;;;;;;5030862;28;20812;-76
2022/11/20 06:28:38;;;;;;;4.80;2.00;;;15.00;99.90;;;;;;5031679;28;20204;-76
2022/11/20 06:31:06;;;;;;;2.43;1.70;;;15.00;99.90;;;;;;5008940;28;20524;-76
2022/11/20 06:33:33;;;;;;;2.77;1.67;;;15.10;99.90;;;;;;5007517;28;20195;-76
2022/11/20 06:36:01;;;;;;;9.47;1.97;;;15.10;99.90;;;;;;5028587;28;20180;-76
2022/11/20 06:38:28;;;;;;;2.77;1.70;;;15.20;99.90;;;;;;5025618;28;20274;-76
2022/11/20 06:40:56;;;;;;;4.17;1.70;;;15.30;99.90;;;;;;5024425;28;20522;-76
2022/11/20 06:43:24;;;;;;;2.70;1.90;;;15.30;99.90;;;;;;5026697;28;20207;-76
2022/11/20 06:45:55;;;;;;;4.53;2.37;;;15.40;99.90;;;;;;5025212;28;20192;-76
2022/11/20 06:48:23;;;;;;;2.40;1.77;;;15.50;99.90;;;;;;5027080;28;20838;-76
2022/11/20 06:50:50;;;;;;;3.67;2.20;;;15.50;99.90;;;;;;5047563;28;20191;-76
2022/11/20 06:53:17;;;;;;;6.33;2.47;;;15.50;99.90;;;;;;5036313;28;20196;-76
2022/11/20 06:55:46;;;;;;;6.33;2.30;;;15.60;99.90;;;;;;5007631;28;20188;-76
2022/11/20 06:58:16;;;;;;;4.07;1.90;;;15.60;99.90;;;;;;5032696;28;20184;-77
2022/11/20 07:00:43;;;;;;;3.50;1.83;;;15.60;99.90;;;;;;5028807;28;20203;-76
2022/11/20 07:03:11;;;;;;;5.33;2.13;;;15.70;99.90;;;;;;5024064;28;20268;-76
2022/11/20 07:05:39;;;;;;;3.73;2.47;;;15.80;99.90;;;;;;5053546;28;20184;-76
2022/11/20 07:08:06;;;;;;;3.63;2.00;;;15.80;99.90;;;;;;5025523;28;20211;-76
2022/11/20 07:10:32;;;;;;;5.17;2.10;;;15.80;99.90;;;;;;5035243;28;20684;-76
2022/11/20 07:12:59;;;;;;;3.53;1.50;;;15.90;99.90;;;;;;5029680;28;20661;-76
2022/11/20 07:15:26;;;;;;;4.93;1.80;;;15.90;99.90;;;;;;5022733;28;20193;-76
2022/11/20 07:17:52;;;;;;;4.07;1.70;;;15.90;99.90;;;;;;5038395;28;20295;-76
2022/11/20 07:20:19;;;;;;;3.70;1.80;;;15.90;99.90;;;;;;5032280;28;20180;-76
2022/11/20 07:22:48;;;;;;;4.50;1.70;;;15.90;99.90;;;;;;5027874;28;20531;-76
2022/11/20 07:25:15;;;;;;;5.10;1.70;;;16.00;99.90;;;;;;5019463;28;20271;-76
2022/11/20 07:27:41;;;;;;;5.77;1.70;;;16.00;99.90;;;;;;5026817;28;20199;-76
2022/11/20 07:30:10;;;;;;;3.77;1.73;;;16.00;99.90;;;;;;5029054;28;20196;-76
2022/11/20 07:32:36;;;;;;;5.47;1.70;;;15.90;99.90;;;;;;5032191;28;20595;-76
2022/11/20 07:35:02;;;;;;;4.43;1.83;;;15.90;99.90;;;;;;5034582;28;20238;-76
2022/11/20 07:37:29;;;;;;;7.57;1.70;;;15.90;99.90;;;;;;5019623;28;20647;-76
2022/11/20 07:39:55;;;;;;;4.00;1.60;;;16.00;99.90;;;;;;5030281;28;20717;-76
2022/11/20 07:42:22;;;;;;;3.53;1.60;;;16.00;99.90;;;;;;5013749;28;20203;-76
2022/11/20 07:44:48;;;;;;;2.87;1.70;;;16.10;99.90;;;;;;5041792;28;20187;-76
2022/11/20 07:47:14;;;;;;;8.93;1.53;;;16.10;99.90;;;;;;5028916;28;20264;-76
2022/11/20 07:49:40;;;;;;;5.30;1.80;;;16.20;99.90;;;;;;5038243;28;20216;-75
2022/11/20 07:52:10;;;;;;;7.40;1.77;;;16.20;99.90;;;;;;5027599;28;20188;-76
2022/11/20 07:54:37;;;;;;;1.83;1.40;;;16.20;99.90;;;;;;5018439;28;20188;-76
2022/11/20 07:57:04;;;;;;;5.97;1.90;;;16.20;99.90;;;;;;5033604;28;20188;-76
2022/11/20 07:59:31;;;;;;;3.87;1.60;;;16.20;99.90;;;;;;5045491;28;20680;-76
2022/11/20 08:01:57;;;;;;;7.03;1.73;;;16.30;99.90;;;;;;5027434;28;20200;-76
2022/11/20 08:04:24;;;;;;;10.60;1.83;;;16.20;99.90;;;;;;5022394;28;20195;-76
2022/11/20 08:06:53;;;;;;;6.80;1.90;;;16.30;99.90;;;;;;5026258;28;20551;-76
2022/11/20 08:09:21;;;;;;;2.90;1.60;;;16.30;99.90;;;;;;5020293;28;20605;-76
2022/11/20 08:14:32;;;;;;;6.07;1.40;;;16.40;99.90;;;;;;5024842;28;20199;-76
2022/11/20 08:16:59;;;;;;;8.87;2.00;;;16.40;99.90;;;;;;5021695;28;20203;-76
2022/11/20 08:19:25;;;;;;;2.87;1.60;;;16.40;99.90;;;;;;5025127;28;20678;-76
2022/11/20 08:21:51;;;;;;;5.83;2.30;;;16.50;99.90;;;;;;5028985;28;20261;-76
2022/11/20 08:24:17;;;;;;;5.33;2.90;;;16.50;99.90;;;;;;5034892;28;20675;-76
2022/11/20 08:26:44;;;;;;;11.17;3.63;;;16.70;99.90;;;;;;5021063;28;20188;-76
2022/11/20 08:29:10;;;;;;;21.23;3.27;;;16.80;99.90;;;;;;5046727;28;20205;-76
2022/11/20 08:31:37;;;;;;;9.33;2.40;;;17.00;99.90;;;;;;5045246;28;20203;-76
2022/11/20 08:34:07;;;;;;;6.40;2.57;;;17.10;99.90;;;;;;5035054;28;20191;-76
2022/11/20 08:36:36;;;;;;;4.17;2.20;;;17.20;99.90;;;;;;5039835;28;20184;-76
2022/11/20 08:39:03;;;;;;;7.30;2.40;;;17.20;99.90;;;;;;5023385;28;20180;-76
2022/11/20 08:41:32;;;;;;;5.70;2.37;;;17.30;99.90;;;;;;5033740;28;20196;-76
2022/11/20 08:44:08;;;;;;;6.17;1.97;;;17.40;99.90;;;;;;5021618;28;20189;-76
2022/11/20 08:46:41;;;;;;;6.00;1.80;;;17.40;99.90;;;;;;5023848;28;20184;-75
2022/11/20 08:49:12;;;;;;;3.67;1.80;;;17.50;99.90;;;;;;5006908;28;20208;-76
2022/11/20 08:51:39;;;;;;;7.40;1.83;;;17.50;99.90;;;;;;5050360;28;20192;-76
2022/11/20 08:54:06;;;;;;;4.53;1.77;;;17.40;99.90;;;;;;5033653;28;20267;-76
2022/11/20 08:56:34;;;;;;;7.97;2.50;;;17.40;99.90;;;;;;5054696;28;20184;-76
2022/11/20 08:59:01;;;;;;;7.57;2.43;;;17.50;99.90;;;;;;5020220;28;20220;-76
2022/11/20 09:01:29;;;;;;;8.57;3.30;;;17.50;99.90;;;;;;5044019;28;20175;-76
2022/11/20 09:03:59;;;;;;;8.13;3.37;;;17.60;99.90;;;;;;5049157;28;20187;-77
2022/11/20 09:06:27;;;;;;;6.30;2.93;;;17.70;99.90;;;;;;5047336;28;20187;-76
2022/11/20 09:08:58;;;;;;;12.13;2.83;;;17.80;99.90;;;;;;5020010;28;20205;-76
2022/11/20 09:11:24;;;;;;;7.23;3.23;;;17.90;99.90;;;;;;5037647;28;20189;-76
2022/11/20 09:13:51;;;;;;;7.87;2.50;;;18.00;99.90;;;;;;5038229;28;20207;-76
2022/11/20 09:16:17;;;;;;;5.30;2.23;;;18.00;99.90;;;;;;5037478;28;20180;-76
2022/11/20 09:18:43;;;;;;;5.37;2.00;;;18.00;99.90;;;;;;5032810;28;20239;-76
2022/11/20 09:21:15;;;;;;;6.13;2.50;;;18.10;99.90;;;;;;5027298;28;20215;-76
2022/11/20 09:23:45;;;;;;;7.97;4.17;;;18.00;99.90;;;;;;5024524;28;20200;-76
2022/11/20 09:26:13;;;;;;;4.00;2.50;;;18.10;99.90;;;;;;5022249;28;20364;-76
2022/11/20 09:28:40;;;;;;;14.37;2.37;;;18.10;99.90;;;;;;5029056;28;20204;-77
2022/11/20 09:31:25;;;;;;;7.77;2.57;;;18.30;99.90;;;;;;5029322;28;20637;-76
2022/11/20 09:33:52;;;;;;;3.37;2.00;;;18.30;99.90;;;;;;5017666;28;20193;-76
2022/11/20 09:36:18;;;;;;;5.30;1.60;;;18.30;99.90;;;;;;5028836;28;20203;-77
2022/11/20 09:38:46;;;;;;;3.70;1.90;;;18.40;99.90;;;;;;5034640;28;20372;-76
2022/11/20 09:41:34;;;;;;;5.53;2.10;;;18.50;99.90;;;;;;5026811;28;20305;-76
2022/11/20 09:44:40;;;;;;;6.43;1.80;;;18.50;99.90;;;;;;5029181;28;20187;-76
2022/11/20 09:47:27;;;;;;;9.53;2.10;;;18.60;99.90;;;;;;5029176;28;20266;-76
2022/11/20 09:50:22;;;;;;;6.37;2.17;;;18.70;99.90;;;;;;5033088;28;20251;-76
2022/11/20 09:53:31;;;;;;;5.33;2.07;;;18.80;99.90;;;;;;5023246;28;20199;-77
2022/11/20 09:55:58;;;;;;;3.13;1.80;;;18.90;99.90;;;;;;5020926;28;20238;-76
2022/11/20 09:58:46;;;;;;;8.57;2.30;;;19.00;99.90;;;;;;5038926;28;20499;-76
2022/11/20 10:01:29;;;;;;;5.33;2.20;;;19.10;99.90;;;;;;5018995;28;20623;-77
2022/11/20 10:04:17;;;;;;;9.10;1.90;;;19.10;99.90;;;;;;5016892;28;20526;-77
2022/11/20 10:06:47;;;;;;;5.73;2.03;;;19.20;99.90;;;;;;5038714;28;20290;-76
2022/11/20 10:09:13;;;;;;;9.13;2.10;;;19.20;99.90;;;;;;5018915;28;20715;-76
2022/11/20 10:12:31;;;;;;;10.20;2.10;;;19.30;99.90;;;;;;5024653;28;20536;-76
2022/11/20 10:15:29;;;;;;;4.47;1.90;;;19.40;99.90;;;;;;4986753;28;20772;-76
2022/11/20 10:18:47;;;;;;;5.80;1.97;;;19.60;99.90;;;;;;4989193;28;20543;-76
2022/11/20 10:21:30;;;;;;;5.80;2.10;;;19.70;99.90;;;;;;4973369;28;20294;-76
2022/11/20 10:24:38;;;;;;;13.07;2.20;;;19.80;99.90;;;;;;5032793;28;20192;-77
2022/11/20 10:27:51;;;;;;;4.97;2.00;;;19.90;99.90;;;;;;5022122;28;20185;-76
2022/11/20 10:30:21;;;;;;;4.80;2.43;;;20.10;99.90;;;;;;5029778;28;20196;-76
2022/11/20 10:32:59;;;;;;;8.70;2.07;;;20.20;99.90;;;;;;5029965;28;20211;-76
2022/11/20 10:36:00;;;;;;;8.77;2.33;;;20.20;99.90;;;;;;5039415;28;20308;-76
2022/11/20 10:38:43;;;;;;;6.60;2.00;;;20.20;99.90;;;;;;5032177;28;20820;-76
2022/11/20 10:41:25;;;;;;;8.57;2.30;;;20.20;99.90;;;;;;5033408;28;20813;-76
2022/11/20 10:47:11;;;;;;;6.13;2.13;;;20.40;99.90;;;;;;5036835;28;20188;-77
2022/11/20 10:49:40;;;;;;;8.50;2.42;;;20.50;99.90;;;;;;5021468;28;20223;-77
2022/11/20 10:52:47;;;;;;;13.95;2.13;;;20.70;99.90;;;;;;5037490;28;20195;-78
2022/11/20 10:55:52;;;;;;;6.38;1.98;;;20.80;99.90;;;;;;5033297;28;20234;-78
2022/11/20 10:58:50;;;;;;;5.47;1.98;;;20.90;99.90;;;;;;5033456;28;20200;-78
2022/11/20 11:01:26;;;;;;;9.70;2.17;;;21.00;99.90;;;;;;5030667;28;20201;-79
2022/11/20 11:03:55;;;;;;;11.88;2.28;;;20.90;99.90;;;;;;5024039;28;20219;-78
2022/11/20 11:06:49;;;;;;;5.85;2.05;;;20.90;99.90;;;;;;5008908;28;20192;-79
2022/11/20 11:09:34;;;;;;;8.55;2.20;;;21.00;99.90;;;;;;5034239;28;20914;-78
2022/11/20 11:12:00;;;;;;;10.38;2.42;;;20.80;99.90;;;;;;5028117;28;20707;-78
2022/11/20 11:14:28;;;;;;;4.90;1.80;;;20.90;99.90;;;;;;5028076;28;20688;-78
2022/11/20 11:16:57;;;;;;;5.38;1.92;;;20.90;99.90;;;;;;5051694;28;20680;-78
2022/11/20 11:19:24;;;;;;;4.38;1.88;;;20.90;99.90;;;;;;5019355;28;20661;-78
2022/11/20 11:21:57;;;;;;;7.50;2.13;;;20.80;99.90;;;;;;5029269;28;20203;-77
2022/11/20 11:24:32;;;;;;;8.30;2.30;;;20.90;99.90;;;;;;5039506;28;20188;-78
2022/11/20 11:27:06;;;;;;;10.27;1.97;;;20.90;99.90;;;;;;5025201;28;20205;-77
2022/11/20 11:29:33;;;;;;;13.30;2.20;;;21.00;99.90;;;;;;5030346;28;20617;-78
2022/11/20 11:32:21;;;;;;;6.78;1.88;;;21.00;99.90;;;;;;5023809;28;22150;-78
2022/11/20 11:35:18;;;;;;;3.30;1.88;;;21.00;99.90;;;;;;5027792;28;20180;-78
2022/11/20 11:37:48;;;;;;;4.23;1.80;;;21.10;99.90;;;;;;5019921;28;20195;-78
2022/11/20 11:40:17;;;;;;;4.32;1.98;;;21.00;99.90;;;;;;5020344;28;20188;-78
2022/11/20 11:42:58;;;;;;;4.10;1.80;;;21.10;99.90;;;;;;5028075;28;20645;-78
2022/11/20 11:45:26;;;;;;;4.03;2.08;;;21.00;99.90;;;;;;5045569;28;20652;-78
2022/11/20 11:47:56;;;;;;;6.65;2.25;;;21.00;99.90;;;;;;5030408;28;20232;-78
2022/11/20 11:50:30;;;;;;;3.30;2.05;;;20.90;99.90;;;;;;5035362;28;20184;-78
2022/11/20 11:53:16;;;;;;;5.37;2.00;;;20.90;99.90;;;;;;5030692;28;20188;-78
2022/11/20 11:55:54;;;;;;;6.65;2.10;;;20.90;99.90;;;;;;5047272;28;20598;-78
2022/11/20 11:58:55;;;;;;;11.33;2.17;;;20.80;99.90;;;;;;5033353;28;20854;-78
2022/11/20 12:01:48;;;;;;;13.93;2.57;;;20.80;99.90;;;;;;5020924;28;20195;-78
2022/11/20 12:04:21;;;;;;;22.47;2.43;;;20.70;99.90;;;;;;5024786;28;20680;-78
2022/11/20 12:07:07;;;;;;;4.90;1.70;;;20.70;99.90;;;;;;5034618;28;20661;-77
2022/11/20 12:09:42;;;;;;;7.27;2.43;;;20.60;99.90;;;;;;5031775;28;20763;-77
2022/11/20 12:12:22;;;;;;;7.03;1.60;;;20.60;99.90;;;;;;5007883;28;20249;-79
2022/11/20 12:14:54;;;;;;;8.50;1.77;;;20.60;99.90;;;;;;5022242;28;20239;-77
2022/11/20 12:17:21;;;;;;;5.22;1.92;;;20.70;99.90;;;;;;5032532;28;20207;-78
2022/11/20 12:19:47;;;;;;;4.13;1.80;;;20.60;99.90;;;;;;5044565;28;20196;-78
2022/11/20 12:22:45;;;;;;;7.70;1.73;;;20.60;99.90;;;;;;5040418;28;20203;-77
2022/11/20 12:25:27;;;;;;;5.40;2.50;;;20.60;99.90;;;;;;5027158;28;20523;-77
2022/11/20 12:28:14;;;;;;;5.93;2.83;;;20.50;99.90;;;;;;5052285;28;20664;-77
2022/11/20 12:31:29;;;;;;;8.00;3.70;;;20.50;99.90;;;;;;5037337;28;20201;-77
2022/11/20 12:34:23;;;;;;;11.60;3.13;;;20.40;99.90;;;;;;5027867;28;20184;-77
2022/11/20 12:37:30;;;;;;;7.63;3.03;;;20.40;99.90;;;;;;5019080;28;20191;-77
2022/11/20 12:40:27;;;;;;;15.17;3.67;;;20.40;99.90;;;;;;5050893;28;20256;-77
2022/11/20 12:46:23;;;;;;;6.37;2.70;;;20.20;99.90;;;;;;5020334;28;20187;-77
2022/11/20 12:49:06;;;;;;;8.40;2.80;;;20.20;99.90;;;;;;5027536;28;20716;-77
2022/11/20 12:52:11;;;;;;;6.73;2.20;;;20.10;99.90;;;;;;5034177;28;20709;-77
2022/11/20 12:55:09;;;;;;;5.20;2.23;;;20.00;99.90;;;;;;5034476;28;20250;-77
2022/11/20 12:57:58;;;;;;;7.10;2.30;;;20.00;99.90;;;;;;5027500;28;20192;-77
2022/11/20 13:00:25;;;;;;;4.90;2.47;;;19.90;99.90;;;;;;5017973;28;20654;-77
2022/11/20 13:03:33;;;;;;;4.93;2.40;;;19.90;99.90;;;;;;5023500;28;20199;-77
2022/11/20 13:06:18;;;;;;;6.47;2.00;;;19.80;99.90;;;;;;5028080;28;20195;-77
2022/11/20 13:08:55;;;;;;;4.83;1.93;;;19.70;99.90;;;;;;5038489;28;20222;-77
2022/11/20 13:11:42;;;;;;;4.07;2.20;;;19.60;99.90;;;;;;5033472;28;20191;-77
2022/11/20 13:14:38;;;;;;;5.23;1.93;;;19.40;99.90;;;;;;5042540;28;20270;-77
2022/11/20 13:17:42;;;;;;;10.77;2.30;;;19.40;99.90;;;;;;5027050;28;20695;-77
2022/11/20 13:20:17;;;;;;;4.00;1.90;;;19.40;99.90;;;;;;5032198;28;20203;-77
2022/11/20 13:22:54;;;;;;;4.60;2.20;;;19.30;99.90;;;;;;5019126;28;21907;-77
2022/11/20 13:25:37;;;;;;;13.23;2.13;;;19.20;99.90;;;;;;5036888;28;20195;-77
2022/11/20 13:28:29;;;;;;;8.73;2.20;;;19.10;99.90;;;;;;5026967;28;20196;-77
2022/11/20 13:30:58;;;;;;;3.57;2.30;;;19.10;99.90;;;;;;5056561;28;20188;-77